Irini — SYZA — position and weather

sailwx.info

Track history (hours):
 
Tides and Currents Weather Stations Pressure Air Temp Water Temp Dewpoint Dewpoint Depression Visibility Wind Speed Wind Dir Waves Ship Positions

Irini

Last reported at 2016-Jul-30 22:33 UTC. Time now 2016-Jul-31 00:19 UTC.
Position N 38°02' E 023°31'.

Length 137 m; draft 7.2 m.

Type: Ship (hazmat cat A). MMSI: 240052000.

Date/timePositionNaut miles runAvg speedWind from/ knotsBaromVisibWave heightAir tempDewpointWater temp
2016-Jul-30 22:33N 38°02' E 023°31'0 0.0
2016-Jul-30 21:33N 38°02' E 023°31'0 0.0
2016-Jul-30 20:33N 38°02' E 023°31'0 0.0
2016-Jul-30 19:33N 38°02' E 023°31'0 0.0
2016-Jul-30 18:33N 38°02' E 023°31'0 0.0
2016-Jul-30 17:33N 38°02' E 023°31'0 0.0
2016-Jul-30 16:33N 38°02' E 023°31'0 0.0
2016-Jul-30 15:33N 38°02' E 023°31'0 0.0
2016-Jul-30 14:33N 38°02' E 023°31'0 0.0
2016-Jul-30 13:33N 38°02' E 023°31'0 0.0
2016-Jul-30 12:33N 38°02' E 023°31'0 0.0
2016-Jul-30 11:33N 38°02' E 023°31'0 0.0
2016-Jul-30 10:33N 38°02' E 023°31'1 1.3
2016-Jul-30 09:33N 38°01' E 023°32'3 2.6
2016-Jul-30 08:28N 38°01' E 023°36'0 0.0
2016-Jul-30 07:28N 38°02' E 023°36'0 0.0
2016-Jul-30 06:28N 38°01' E 023°36'0 0.0
2016-Jul-30 05:28N 38°02' E 023°36'0 0.0
2016-Jul-30 04:31N 38°02' E 023°36'0 0.0
2016-Jul-30 03:28N 38°02' E 023°36'0 0.0
2016-Jul-30 02:22N 38°01' E 023°36'0 0.0
2016-Jul-30 01:25N 38°01' E 023°36'0 0.0
2016-Jul-30 00:28N 38°02' E 023°36'0 0.0
2016-Jul-29 23:31N 38°02' E 023°36'0 0.0
2016-Jul-29 22:28N 38°02' E 023°36'0 0.0
2016-Jul-29 21:28N 38°02' E 023°36'0 0.0
2016-Jul-29 20:31N 38°02' E 023°36'0 0.0
2016-Jul-29 19:31N 38°01' E 023°36'0 0.0
2016-Jul-29 18:31N 38°02' E 023°36'0 0.0
2016-Jul-29 17:28N 38°02' E 023°36'0 0.0
2016-Jul-29 16:28N 38°02' E 023°36'0 0.0
2016-Jul-29 15:22N 38°02' E 023°36'0 0.0
2016-Jul-29 14:28N 38°02' E 023°36'0 0.0
2016-Jul-29 13:28N 38°02' E 023°36'0 0.0
2016-Jul-29 12:28N 38°02' E 023°36'0 0.0
2016-Jul-29 11:28N 38°02' E 023°36'0 0.0
2016-Jul-29 10:25N 38°02' E 023°36'0 0.0
2016-Jul-29 09:22N 38°01' E 023°36'0 0.0
2016-Jul-29 08:28N 38°02' E 023°36'3 2.9
2016-Jul-29 07:33N 38°01' E 023°32'1 0.5
2016-Jul-29 06:32N 38°02' E 023°32'0 0.0
2016-Jul-29 05:32N 38°02' E 023°32'0 0.0
2016-Jul-29 04:32N 38°02' E 023°32'0 0.0
2016-Jul-29 03:32N 38°02' E 023°32'0 0.0
2016-Jul-29 02:32N 38°02' E 023°32'0 0.0
2016-Jul-29 01:32N 38°02' E 023°32'0 0.0
2016-Jul-29 00:32N 38°02' E 023°32'0 0.0
2016-Jul-28 23:32N 38°02' E 023°32'0 0.0
2016-Jul-28 22:32N 38°02' E 023°32'0 0.0
2016-Jul-28 21:32N 38°02' E 023°32'0 0.0
2016-Jul-28 20:32N 38°02' E 023°32'0 0.0
2016-Jul-28 19:29N 38°02' E 023°32'0 0.0
2016-Jul-28 18:32N 38°02' E 023°32'0 0.0
2016-Jul-28 17:32N 38°02' E 023°32'0 0.0
2016-Jul-28 16:32N 38°02' E 023°32'0 0.0
2016-Jul-28 15:32N 38°02' E 023°32'0 0.0
2016-Jul-28 14:32N 38°02' E 023°32'0 0.0
2016-Jul-28 13:32N 38°02' E 023°32'0 0.4
2016-Jul-28 12:33N 38°01' E 023°32'3 2.4
2016-Jul-28 11:24N 38°01' E 023°36'0 0.0
2016-Jul-28 10:33N 38°01' E 023°36'0 0.0
2016-Jul-28 09:27N 38°01' E 023°36'0 0.0
2016-Jul-28 08:18N 38°01' E 023°36'0 0.0
2016-Jul-28 07:27N 38°01' E 023°36'0 0.0
2016-Jul-28 06:30N 38°01' E 023°36'0 0.0
2016-Jul-28 05:30N 38°01' E 023°36'0 0.0
2016-Jul-28 04:30N 38°01' E 023°36'0 0.0
2016-Jul-28 03:30N 38°01' E 023°36'0 0.0
2016-Jul-28 02:33N 38°01' E 023°36'0 0.0
2016-Jul-28 01:21N 38°01' E 023°36'0 0.0
2016-Jul-28 00:33N 38°01' E 023°36'0 0.0
2016-Jul-27 23:24N 38°01' E 023°36'0 0.0
2016-Jul-27 22:30N 38°01' E 023°36'0 0.0
2016-Jul-27 21:30N 38°01' E 023°36'0 0.0
2016-Jul-27 20:30N 38°01' E 023°36'0 0.0
2016-Jul-27 19:33N 38°01' E 023°36'0 0.0
2016-Jul-27 18:30N 38°01' E 023°36'0 0.0
2016-Jul-27 17:33N 38°01' E 023°36'0 0.0
2016-Jul-27 16:21N 38°01' E 023°36'0 0.0
2016-Jul-27 14:27N 38°01' E 023°36'0 0.0
2016-Jul-27 13:18N 38°01' E 023°36'0 0.0
2016-Jul-27 12:27N 38°01' E 023°36'0 0.0
2016-Jul-27 11:33N 38°01' E 023°36'0 0.0
2016-Jul-27 10:33N 38°01' E 023°36'0 0.0
2016-Jul-27 09:21N 38°01' E 023°36'0 0.0
2016-Jul-27 08:21N 38°01' E 023°36'1 1.3
2016-Jul-27 07:33N 38°01' E 023°35'7 6.7
2016-Jul-27 06:34N 37°54' E 023°37'9 9.1
2016-Jul-27 05:34N 37°46' E 023°41'1110.7
2016-Jul-27 04:33N 37°38' E 023°51'1110.9
2016-Jul-27 03:33N 37°37' E 024°04'1111.0
2016-Jul-27 02:33N 37°43' E 024°16'1111.4
2016-Jul-27 01:33N 37°51' E 024°27'1211.4
2016-Jul-27 00:33N 37°60' E 024°36'2311.5
2016-Jul-26 22:34N 38°22' E 024°30'13610.9
2016-Jul-26 10:09N 40°15' E 022°53'711.8
2016-Jul-26 09:32N 40°21' E 022°49'1010.0
2016-Jul-26 08:33N 40°31' E 022°48'8 7.9
2016-Jul-26 07:33N 40°38' E 022°53'0 0.0
2016-Jul-26 06:32N 40°38' E 022°53'0 0.0
2016-Jul-26 05:32N 40°38' E 022°53'0 0.0
2016-Jul-26 04:32N 40°38' E 022°53'0 0.0
2016-Jul-26 03:32N 40°38' E 022°53'0 0.0
2016-Jul-26 02:23N 40°38' E 022°53'0 0.0
2016-Jul-26 01:23N 40°38' E 022°53'0 0.0
2016-Jul-26 00:26N 40°38' E 022°53'0 0.0
2016-Jul-25 23:26N 40°38' E 022°53'0 0.0
2016-Jul-25 22:26N 40°38' E 022°53'0 0.0
2016-Jul-25 21:29N 40°38' E 022°53'0 0.0
2016-Jul-25 20:29N 40°38' E 022°53'0 0.0
2016-Jul-25 19:29N 40°38' E 022°53'0 0.0
2016-Jul-25 18:32N 40°38' E 022°53'0 0.0
2016-Jul-25 17:32N 40°38' E 022°53'0 0.0
2016-Jul-25 16:32N 40°38' E 022°53'0 0.0
2016-Jul-25 15:32N 40°38' E 022°53'0 0.0
2016-Jul-25 14:32N 40°38' E 022°53'0 0.0
2016-Jul-25 13:32N 40°38' E 022°53'0 0.0
2016-Jul-25 12:32N 40°38' E 022°53'0 0.0
2016-Jul-25 11:23N 40°38' E 022°53'0 0.0
2016-Jul-25 10:26N 40°38' E 022°53'0 0.0
2016-Jul-25 09:23N 40°38' E 022°53'0 0.0
2016-Jul-25 08:26N 40°38' E 022°53'0 0.0
2016-Jul-25 07:26N 40°38' E 022°53'0 0.0
2016-Jul-25 06:29N 40°38' E 022°53'0 0.0
2016-Jul-25 05:29N 40°38' E 022°53'2 1.8
2016-Jul-25 04:31N 40°37' E 022°56'0 0.0
2016-Jul-25 03:31N 40°37' E 022°56'0 0.1
2016-Jul-25 02:31N 40°37' E 022°56'0 0.1
2016-Jul-25 01:31N 40°37' E 022°56'0 0.0
2016-Jul-25 00:31N 40°37' E 022°56'0 0.0
2016-Jul-24 23:31N 40°37' E 022°56'0 0.0
2016-Jul-24 22:22N 40°37' E 022°56'0 0.0
2016-Jul-24 21:25N 40°37' E 022°56'0 0.1
2016-Jul-24 20:25N 40°37' E 022°56'0 0.0
2016-Jul-24 19:25N 40°37' E 022°56'0 0.0
2016-Jul-24 18:28N 40°37' E 022°56'0 0.0
2016-Jul-24 17:28N 40°37' E 022°56'0 0.0
2016-Jul-24 16:28N 40°37' E 022°56'0 0.0
2016-Jul-24 15:31N 40°37' E 022°56'0 0.0
2016-Jul-24 14:31N 40°37' E 022°56'0 0.0
2016-Jul-24 13:31N 40°37' E 022°56'0 0.0
2016-Jul-24 12:31N 40°37' E 022°56'0 0.0
2016-Jul-24 11:31N 40°37' E 022°56'0 0.0
2016-Jul-24 10:31N 40°37' E 022°56'0 0.0
2016-Jul-24 09:31N 40°37' E 022°56'0 0.1
2016-Jul-24 08:22N 40°37' E 022°56'2 2.2
2016-Jul-24 07:33N 40°38' E 022°53'0 0.0
2016-Jul-24 06:32N 40°38' E 022°53'0 0.0
2016-Jul-24 05:32N 40°38' E 022°53'0 0.0
2016-Jul-24 04:32N 40°38' E 022°53'0 0.0
2016-Jul-24 03:32N 40°38' E 022°53'0 0.0
2016-Jul-24 02:23N 40°38' E 022°53'0 0.0
2016-Jul-24 01:23N 40°38' E 022°53'0 0.0
2016-Jul-24 00:26N 40°38' E 022°53'0 0.0
2016-Jul-23 23:26N 40°38' E 022°53'0 0.0
2016-Jul-23 22:26N 40°38' E 022°53'0 0.0
2016-Jul-23 21:29N 40°38' E 022°53'0 0.0
2016-Jul-23 20:29N 40°38' E 022°53'0 0.0
2016-Jul-23 19:29N 40°38' E 022°53'0 0.0
2016-Jul-23 18:32N 40°38' E 022°53'0 0.0
2016-Jul-23 17:32N 40°38' E 022°53'0 0.0
2016-Jul-23 16:32N 40°38' E 022°53'0 0.0
2016-Jul-23 15:32N 40°38' E 022°53'0 0.0
2016-Jul-23 13:32N 40°38' E 022°53'0 0.0
2016-Jul-23 12:20N 40°38' E 022°53'0 0.0
2016-Jul-23 11:23N 40°38' E 022°53'0 0.0
2016-Jul-23 10:26N 40°38' E 022°53'0 0.0
2016-Jul-23 09:26N 40°38' E 022°53'0 0.0
2016-Jul-23 08:26N 40°38' E 022°53'1 0.8
2016-Jul-23 07:33N 40°38' E 022°54'8 7.6
2016-Jul-23 06:33N 40°31' E 022°49'17810.5
2016-Jul-22 13:33N 37°51' E 024°29'1110.9
2016-Jul-22 12:33N 37°44' E 024°19'1211.0
2016-Jul-22 11:30N 37°37' E 024°08'1111.4
2016-Jul-22 10:33N 37°37' E 023°54'1111.0
2016-Jul-22 09:33N 37°42' E 023°42'1111.5
2016-Jul-22 08:33N 37°53' E 023°37'9 9.0
2016-Jul-22 07:34N 38°01' E 023°32'1 0.3
2016-Jul-22 04:31N 38°02' E 023°32'0 0.0
2016-Jul-22 03:31N 38°02' E 023°32'0 0.0
2016-Jul-22 02:31N 38°02' E 023°32'0 0.0
2016-Jul-22 01:31N 38°02' E 023°32'0 0.0
2016-Jul-22 00:31N 38°02' E 023°32'0 0.0
2016-Jul-21 23:31N 38°02' E 023°32'0 0.0
2016-Jul-21 22:31N 38°02' E 023°32'1 0.9
2016-Jul-21 21:34N 38°02' E 023°31'0 0.0
2016-Jul-21 20:34N 38°02' E 023°31'0 0.0
2016-Jul-21 19:34N 38°02' E 023°31'0 0.0
2016-Jul-21 18:34N 38°02' E 023°31'0 0.0
2016-Jul-21 17:34N 38°02' E 023°31'0 0.0
2016-Jul-21 16:34N 38°02' E 023°31'0 0.0
2016-Jul-21 15:34N 38°02' E 023°31'0 0.0
2016-Jul-21 14:34N 38°02' E 023°31'0 0.0
2016-Jul-21 13:31N 38°02' E 023°31'0 0.0
2016-Jul-21 12:34N 38°02' E 023°31'0 0.0
2016-Jul-21 11:34N 38°02' E 023°31'0 0.0
2016-Jul-21 10:34N 38°02' E 023°31'0 0.0
2016-Jul-21 09:34N 38°02' E 023°31'0 0.0
2016-Jul-21 08:31N 38°02' E 023°31'0 0.0
2016-Jul-21 07:34N 38°02' E 023°31'0 0.0
2016-Jul-21 06:34N 38°02' E 023°31'0 0.0
2016-Jul-21 05:34N 38°02' E 023°31'0 0.0
2016-Jul-21 04:34N 38°02' E 023°31'0 0.0
2016-Jul-21 03:34N 38°02' E 023°31'0 0.0
2016-Jul-21 02:34N 38°02' E 023°31'0 0.0
2016-Jul-21 01:34N 38°02' E 023°31'0 0.0
2016-Jul-21 00:34N 38°02' E 023°31'0 0.0
2016-Jul-20 23:34N 38°02' E 023°31'0 0.0
2016-Jul-20 22:34N 38°02' E 023°31'  
Track history (hours):
 
Tides and Currents Weather Stations Pressure Air Temp Water Temp Dewpoint Dewpoint Depression Visibility Wind Speed Wind Dir Waves Ship Positions

Irini

Last reported at 2016-Jul-30 22:33 UTC. Time now 2016-Jul-31 00:19 UTC.
Position N 38°02' E 023°31'.

Length 137 m; draft 7.2 m.

Type: Ship (hazmat cat A). MMSI: 240052000.

Date/timePositionNaut miles runAvg speedWind from/ knotsBaromVisibWave heightAir tempDewpointWater temp
2016-Jul-30 22:33N 38°02' E 023°31'0 0.0
2016-Jul-30 21:33N 38°02' E 023°31'0 0.0
2016-Jul-30 20:33N 38°02' E 023°31'0 0.0
2016-Jul-30 19:33N 38°02' E 023°31'0 0.0
2016-Jul-30 18:33N 38°02' E 023°31'0 0.0
2016-Jul-30 17:33N 38°02' E 023°31'0 0.0
2016-Jul-30 16:33N 38°02' E 023°31'0 0.0
2016-Jul-30 15:33N 38°02' E 023°31'0 0.0
2016-Jul-30 14:33N 38°02' E 023°31'0 0.0
2016-Jul-30 13:33N 38°02' E 023°31'0 0.0
2016-Jul-30 12:33N 38°02' E 023°31'0 0.0
2016-Jul-30 11:33N 38°02' E 023°31'0 0.0
2016-Jul-30 10:33N 38°02' E 023°31'1 1.3
2016-Jul-30 09:33N 38°01' E 023°32'3 2.6
2016-Jul-30 08:28N 38°01' E 023°36'0 0.0
2016-Jul-30 07:28N 38°02' E 023°36'0 0.0
2016-Jul-30 06:28N 38°01' E 023°36'0 0.0
2016-Jul-30 05:28N 38°02' E 023°36'0 0.0
2016-Jul-30 04:31N 38°02' E 023°36'0 0.0
2016-Jul-30 03:28N 38°02' E 023°36'0 0.0
2016-Jul-30 02:22N 38°01' E 023°36'0 0.0
2016-Jul-30 01:25N 38°01' E 023°36'0 0.0
2016-Jul-30 00:28N 38°02' E 023°36'0 0.0
2016-Jul-29 23:31N 38°02' E 023°36'0 0.0
2016-Jul-29 22:28N 38°02' E 023°36'0 0.0
2016-Jul-29 21:28N 38°02' E 023°36'0 0.0
2016-Jul-29 20:31N 38°02' E 023°36'0 0.0
2016-Jul-29 19:31N 38°01' E 023°36'0 0.0
2016-Jul-29 18:31N 38°02' E 023°36'0 0.0
2016-Jul-29 17:28N 38°02' E 023°36'0 0.0
2016-Jul-29 16:28N 38°02' E 023°36'0 0.0
2016-Jul-29 15:22N 38°02' E 023°36'0 0.0
2016-Jul-29 14:28N 38°02' E 023°36'0 0.0
2016-Jul-29 13:28N 38°02' E 023°36'0 0.0
2016-Jul-29 12:28N 38°02' E 023°36'0 0.0
2016-Jul-29 11:28N 38°02' E 023°36'0 0.0
2016-Jul-29 10:25N 38°02' E 023°36'0 0.0
2016-Jul-29 09:22N 38°01' E 023°36'0 0.0
2016-Jul-29 08:28N 38°02' E 023°36'3 2.9
2016-Jul-29 07:33N 38°01' E 023°32'1 0.5
2016-Jul-29 06:32N 38°02' E 023°32'0 0.0
2016-Jul-29 05:32N 38°02' E 023°32'0 0.0
2016-Jul-29 04:32N 38°02' E 023°32'0 0.0
2016-Jul-29 03:32N 38°02' E 023°32'0 0.0
2016-Jul-29 02:32N 38°02' E 023°32'0 0.0
2016-Jul-29 01:32N 38°02' E 023°32'0 0.0
2016-Jul-29 00:32N 38°02' E 023°32'0 0.0
2016-Jul-28 23:32N 38°02' E 023°32'0 0.0
2016-Jul-28 22:32N 38°02' E 023°32'0 0.0
2016-Jul-28 21:32N 38°02' E 023°32'0 0.0
2016-Jul-28 20:32N 38°02' E 023°32'0 0.0
2016-Jul-28 19:29N 38°02' E 023°32'0 0.0
2016-Jul-28 18:32N 38°02' E 023°32'0 0.0
2016-Jul-28 17:32N 38°02' E 023°32'0 0.0
2016-Jul-28 16:32N 38°02' E 023°32'0 0.0
2016-Jul-28 15:32N 38°02' E 023°32'0 0.0
2016-Jul-28 14:32N 38°02' E 023°32'0 0.0
2016-Jul-28 13:32N 38°02' E 023°32'0 0.4
2016-Jul-28 12:33N 38°01' E 023°32'3 2.4
2016-Jul-28 11:24N 38°01' E 023°36'0 0.0
2016-Jul-28 10:33N 38°01' E 023°36'0 0.0
2016-Jul-28 09:27N 38°01' E 023°36'0 0.0
2016-Jul-28 08:18N 38°01' E 023°36'0 0.0
2016-Jul-28 07:27N 38°01' E 023°36'0 0.0
2016-Jul-28 06:30N 38°01' E 023°36'0 0.0
2016-Jul-28 05:30N 38°01' E 023°36'0 0.0
2016-Jul-28 04:30N 38°01' E 023°36'0 0.0
2016-Jul-28 03:30N 38°01' E 023°36'0 0.0
2016-Jul-28 02:33N 38°01' E 023°36'0 0.0
2016-Jul-28 01:21N 38°01' E 023°36'0 0.0
2016-Jul-28 00:33N 38°01' E 023°36'0 0.0
2016-Jul-27 23:24N 38°01' E 023°36'0 0.0
2016-Jul-27 22:30N 38°01' E 023°36'0 0.0
2016-Jul-27 21:30N 38°01' E 023°36'0 0.0
2016-Jul-27 20:30N 38°01' E 023°36'0 0.0
2016-Jul-27 19:33N 38°01' E 023°36'0 0.0
2016-Jul-27 18:30N 38°01' E 023°36'0 0.0
2016-Jul-27 17:33N 38°01' E 023°36'0 0.0
2016-Jul-27 16:21N 38°01' E 023°36'0 0.0
2016-Jul-27 14:27N 38°01' E 023°36'0 0.0
2016-Jul-27 13:18N 38°01' E 023°36'0 0.0
2016-Jul-27 12:27N 38°01' E 023°36'0 0.0
2016-Jul-27 11:33N 38°01' E 023°36'0 0.0
2016-Jul-27 10:33N 38°01' E 023°36'0 0.0
2016-Jul-27 09:21N 38°01' E 023°36'0 0.0
2016-Jul-27 08:21N 38°01' E 023°36'1 1.3
2016-Jul-27 07:33N 38°01' E 023°35'7 6.7
2016-Jul-27 06:34N 37°54' E 023°37'9 9.1
2016-Jul-27 05:34N 37°46' E 023°41'1110.7
2016-Jul-27 04:33N 37°38' E 023°51'1110.9
2016-Jul-27 03:33N 37°37' E 024°04'1111.0
2016-Jul-27 02:33N 37°43' E 024°16'1111.4
2016-Jul-27 01:33N 37°51' E 024°27'1211.4
2016-Jul-27 00:33N 37°60' E 024°36'2311.5
2016-Jul-26 22:34N 38°22' E 024°30'13610.9
2016-Jul-26 10:09N 40°15' E 022°53'711.8
2016-Jul-26 09:32N 40°21' E 022°49'1010.0
2016-Jul-26 08:33N 40°31' E 022°48'8 7.9
2016-Jul-26 07:33N 40°38' E 022°53'0 0.0
2016-Jul-26 06:32N 40°38' E 022°53'0 0.0
2016-Jul-26 05:32N 40°38' E 022°53'0 0.0
2016-Jul-26 04:32N 40°38' E 022°53'0 0.0
2016-Jul-26 03:32N 40°38' E 022°53'0 0.0
2016-Jul-26 02:23N 40°38' E 022°53'0 0.0
2016-Jul-26 01:23N 40°38' E 022°53'0 0.0
2016-Jul-26 00:26N 40°38' E 022°53'0 0.0
2016-Jul-25 23:26N 40°38' E 022°53'0 0.0
2016-Jul-25 22:26N 40°38' E 022°53'0 0.0
2016-Jul-25 21:29N 40°38' E 022°53'0 0.0
2016-Jul-25 20:29N 40°38' E 022°53'0 0.0
2016-Jul-25 19:29N 40°38' E 022°53'0 0.0
2016-Jul-25 18:32N 40°38' E 022°53'0 0.0
2016-Jul-25 17:32N 40°38' E 022°53'0 0.0
2016-Jul-25 16:32N 40°38' E 022°53'0 0.0
2016-Jul-25 15:32N 40°38' E 022°53'0 0.0
2016-Jul-25 14:32N 40°38' E 022°53'0 0.0
2016-Jul-25 13:32N 40°38' E 022°53'0 0.0
2016-Jul-25 12:32N 40°38' E 022°53'0 0.0
2016-Jul-25 11:23N 40°38' E 022°53'0 0.0
2016-Jul-25 10:26N 40°38' E 022°53'0 0.0
2016-Jul-25 09:23N 40°38' E 022°53'0 0.0
2016-Jul-25 08:26N 40°38' E 022°53'0 0.0
2016-Jul-25 07:26N 40°38' E 022°53'0 0.0
2016-Jul-25 06:29N 40°38' E 022°53'0 0.0
2016-Jul-25 05:29N 40°38' E 022°53'2 1.8
2016-Jul-25 04:31N 40°37' E 022°56'0 0.0
2016-Jul-25 03:31N 40°37' E 022°56'0 0.1
2016-Jul-25 02:31N 40°37' E 022°56'0 0.1
2016-Jul-25 01:31N 40°37' E 022°56'0 0.0
2016-Jul-25 00:31N 40°37' E 022°56'0 0.0
2016-Jul-24 23:31N 40°37' E 022°56'0 0.0
2016-Jul-24 22:22N 40°37' E 022°56'0 0.0
2016-Jul-24 21:25N 40°37' E 022°56'0 0.1
2016-Jul-24 20:25N 40°37' E 022°56'0 0.0
2016-Jul-24 19:25N 40°37' E 022°56'0 0.0
2016-Jul-24 18:28N 40°37' E 022°56'0 0.0
2016-Jul-24 17:28N 40°37' E 022°56'0 0.0
2016-Jul-24 16:28N 40°37' E 022°56'0 0.0
2016-Jul-24 15:31N 40°37' E 022°56'0 0.0
2016-Jul-24 14:31N 40°37' E 022°56'0 0.0
2016-Jul-24 13:31N 40°37' E 022°56'0 0.0
2016-Jul-24 12:31N 40°37' E 022°56'0 0.0
2016-Jul-24 11:31N 40°37' E 022°56'0 0.0
2016-Jul-24 10:31N 40°37' E 022°56'0 0.0
2016-Jul-24 09:31N 40°37' E 022°56'0 0.1
2016-Jul-24 08:22N 40°37' E 022°56'2 2.2
2016-Jul-24 07:33N 40°38' E 022°53'0 0.0
2016-Jul-24 06:32N 40°38' E 022°53'0 0.0
2016-Jul-24 05:32N 40°38' E 022°53'0 0.0
2016-Jul-24 04:32N 40°38' E 022°53'0 0.0
2016-Jul-24 03:32N 40°38' E 022°53'0 0.0
2016-Jul-24 02:23N 40°38' E 022°53'0 0.0
2016-Jul-24 01:23N 40°38' E 022°53'0 0.0
2016-Jul-24 00:26N 40°38' E 022°53'0 0.0
2016-Jul-23 23:26N 40°38' E 022°53'0 0.0
2016-Jul-23 22:26N 40°38' E 022°53'0 0.0
2016-Jul-23 21:29N 40°38' E 022°53'0 0.0
2016-Jul-23 20:29N 40°38' E 022°53'0 0.0
2016-Jul-23 19:29N 40°38' E 022°53'0 0.0
2016-Jul-23 18:32N 40°38' E 022°53'0 0.0
2016-Jul-23 17:32N 40°38' E 022°53'0 0.0
2016-Jul-23 16:32N 40°38' E 022°53'0 0.0
2016-Jul-23 15:32N 40°38' E 022°53'0 0.0
2016-Jul-23 13:32N 40°38' E 022°53'0 0.0
2016-Jul-23 12:20N 40°38' E 022°53'0 0.0
2016-Jul-23 11:23N 40°38' E 022°53'0 0.0
2016-Jul-23 10:26N 40°38' E 022°53'0 0.0
2016-Jul-23 09:26N 40°38' E 022°53'0 0.0
2016-Jul-23 08:26N 40°38' E 022°53'1 0.8
2016-Jul-23 07:33N 40°38' E 022°54'8 7.6
2016-Jul-23 06:33N 40°31' E 022°49'17810.5
2016-Jul-22 13:33N 37°51' E 024°29'1110.9
2016-Jul-22 12:33N 37°44' E 024°19'1211.0
2016-Jul-22 11:30N 37°37' E 024°08'1111.4
2016-Jul-22 10:33N 37°37' E 023°54'1111.0
2016-Jul-22 09:33N 37°42' E 023°42'1111.5
2016-Jul-22 08:33N 37°53' E 023°37'9 9.0
2016-Jul-22 07:34N 38°01' E 023°32'1 0.3
2016-Jul-22 04:31N 38°02' E 023°32'0 0.0
2016-Jul-22 03:31N 38°02' E 023°32'0 0.0
2016-Jul-22 02:31N 38°02' E 023°32'0 0.0
2016-Jul-22 01:31N 38°02' E 023°32'0 0.0
2016-Jul-22 00:31N 38°02' E 023°32'0 0.0
2016-Jul-21 23:31N 38°02' E 023°32'0 0.0
2016-Jul-21 22:31N 38°02' E 023°32'1 0.9
2016-Jul-21 21:34N 38°02' E 023°31'0 0.0
2016-Jul-21 20:34N 38°02' E 023°31'0 0.0
2016-Jul-21 19:34N 38°02' E 023°31'0 0.0
2016-Jul-21 18:34N 38°02' E 023°31'0 0.0
2016-Jul-21 17:34N 38°02' E 023°31'0 0.0
2016-Jul-21 16:34N 38°02' E 023°31'0 0.0
2016-Jul-21 15:34N 38°02' E 023°31'0 0.0
2016-Jul-21 14:34N 38°02' E 023°31'0 0.0
2016-Jul-21 13:31N 38°02' E 023°31'0 0.0
2016-Jul-21 12:34N 38°02' E 023°31'0 0.0
2016-Jul-21 11:34N 38°02' E 023°31'0 0.0
2016-Jul-21 10:34N 38°02' E 023°31'0 0.0
2016-Jul-21 09:34N 38°02' E 023°31'0 0.0
2016-Jul-21 08:31N 38°02' E 023°31'0 0.0
2016-Jul-21 07:34N 38°02' E 023°31'0 0.0
2016-Jul-21 06:34N 38°02' E 023°31'0 0.0
2016-Jul-21 05:34N 38°02' E 023°31'0 0.0
2016-Jul-21 04:34N 38°02' E 023°31'0 0.0
2016-Jul-21 03:34N 38°02' E 023°31'0 0.0
2016-Jul-21 02:34N 38°02' E 023°31'0 0.0
2016-Jul-21 01:34N 38°02' E 023°31'0 0.0
2016-Jul-21 00:34N 38°02' E 023°31'0 0.0
2016-Jul-20 23:34N 38°02' E 023°31'0 0.0
2016-Jul-20 22:34N 38°02' E 023°31'  

Dump ship's entire track history